sensor_id;sensor_type;location;lat;lon;timestamp;temperature;humidity
68274;SHT30;55104;47.356;19.448;2023-08-21T00:00:10;21.68;91.42
68274;SHT30;55104;47.356;19.448;2023-08-21T00:03:15;21.82;89.07
68274;SHT30;55104;47.356;19.448;2023-08-21T00:06:17;21.81;89.55
68274;SHT30;55104;47.356;19.448;2023-08-21T00:09:19;21.79;90.00
68274;SHT30;55104;47.356;19.448;2023-08-21T00:12:21;21.78;89.29
68274;SHT30;55104;47.356;19.448;2023-08-21T00:15:23;21.73;89.82
68274;SHT30;55104;47.356;19.448;2023-08-21T00:18:25;21.68;89.63
68274;SHT30;55104;47.356;19.448;2023-08-21T00:21:27;21.64;89.29
68274;SHT30;55104;47.356;19.448;2023-08-21T00:24:29;21.67;89.23
68274;SHT30;55104;47.356;19.448;2023-08-21T00:27:31;21.68;89.30
68274;SHT30;55104;47.356;19.448;2023-08-21T00:30:33;21.73;88.63
68274;SHT30;55104;47.356;19.448;2023-08-21T00:33:35;21.71;89.08
68274;SHT30;55104;47.356;19.448;2023-08-21T00:36:39;21.67;89.47
68274;SHT30;55104;47.356;19.448;2023-08-21T00:39:41;21.62;89.74
68274;SHT30;55104;47.356;19.448;2023-08-21T00:42:43;21.59;89.78
68274;SHT30;55104;47.356;19.448;2023-08-21T00:45:46;21.57;89.84
68274;SHT30;55104;47.356;19.448;2023-08-21T00:48:49;21.58;89.69
68274;SHT30;55104;47.356;19.448;2023-08-21T00:51:51;21.58;89.55
68274;SHT30;55104;47.356;19.448;2023-08-21T00:54:54;21.53;89.75
68274;SHT30;55104;47.356;19.448;2023-08-21T00:57:57;21.48;89.89
68274;SHT30;55104;47.356;19.448;2023-08-21T01:01:00;21.47;90.00
68274;SHT30;55104;47.356;19.448;2023-08-21T01:04:03;21.40;90.22
68274;SHT30;55104;47.356;19.448;2023-08-21T01:07:06;21.40;90.39
68274;SHT30;55104;47.356;19.448;2023-08-21T01:11:02;21.39;90.10
68274;SHT30;55104;47.356;19.448;2023-08-21T01:14:03;21.40;90.03
68274;SHT30;55104;47.356;19.448;2023-08-21T01:17:09;21.36;90.68
68274;SHT30;55104;47.356;19.448;2023-08-21T01:20:15;21.29;90.58
68274;SHT30;55104;47.356;19.448;2023-08-21T01:23:37;21.26;90.73
68274;SHT30;55104;47.356;19.448;2023-08-21T01:26:39;21.20;90.63
68274;SHT30;55104;47.356;19.448;2023-08-21T01:29:42;21.19;91.09
68274;SHT30;55104;47.356;19.448;2023-08-21T01:33:00;21.13;91.04
68274;SHT30;55104;47.356;19.448;2023-08-21T01:36:04;21.09;91.11
68274;SHT30;55104;47.356;19.448;2023-08-21T01:39:08;21.03;91.23
68274;SHT30;55104;47.356;19.448;2023-08-21T01:42:12;20.98;91.47
68274;SHT30;55104;47.356;19.448;2023-08-21T01:45:14;20.98;91.60
68274;SHT30;55104;47.356;19.448;2023-08-21T01:48:17;20.95;91.88
68274;SHT30;55104;47.356;19.448;2023-08-21T01:51:19;20.92;91.87
68274;SHT30;55104;47.356;19.448;2023-08-21T01:54:22;20.89;91.96
68274;SHT30;55104;47.356;19.448;2023-08-21T01:57:24;20.88;92.21
68274;SHT30;55104;47.356;19.448;2023-08-21T02:00:26;20.86;92.24
68274;SHT30;55104;47.356;19.448;2023-08-21T02:03:29;20.84;92.37
68274;SHT30;55104;47.356;19.448;2023-08-21T02:06:32;20.85;92.28
68274;SHT30;55104;47.356;19.448;2023-08-21T02:09:34;20.84;92.31
68274;SHT30;55104;47.356;19.448;2023-08-21T02:12:36;20.82;92.51
68274;SHT30;55104;47.356;19.448;2023-08-21T02:15:43;20.82;92.64
68274;SHT30;55104;47.356;19.448;2023-08-21T02:18:45;20.93;92.62
68274;SHT30;55104;47.356;19.448;2023-08-21T02:21:48;21.06;92.54
68274;SHT30;55104;47.356;19.448;2023-08-21T02:24:50;21.16;92.22
68274;SHT30;55104;47.356;19.448;2023-08-21T02:27:52;21.26;91.78
68274;SHT30;55104;47.356;19.448;2023-08-21T02:30:54;21.40;91.34
68274;SHT30;55104;47.356;19.448;2023-08-21T02:33:56;21.58;90.57
68274;SHT30;55104;47.356;19.448;2023-08-21T02:36:59;21.69;89.88
68274;SHT30;55104;47.356;19.448;2023-08-21T02:40:02;21.75;89.84
68274;SHT30;55104;47.356;19.448;2023-08-21T02:43:05;21.82;89.50
68274;SHT30;55104;47.356;19.448;2023-08-21T02:46:07;21.95;88.85
68274;SHT30;55104;47.356;19.448;2023-08-21T02:49:10;22.01;88.70
68274;SHT30;55104;47.356;19.448;2023-08-21T02:52:14;22.03;88.51
68274;SHT30;55104;47.356;19.448;2023-08-21T02:55:16;22.08;88.20
68274;SHT30;55104;47.356;19.448;2023-08-21T02:58:19;22.16;87.71
68274;SHT30;55104;47.356;19.448;2023-08-21T03:01:21;22.23;87.33
68274;SHT30;55104;47.356;19.448;2023-08-21T03:04:24;22.20;87.34
68274;SHT30;55104;47.356;19.448;2023-08-21T03:07:26;22.23;87.24
68274;SHT30;55104;47.356;19.448;2023-08-21T03:10:28;22.26;87.11
68274;SHT30;55104;47.356;19.448;2023-08-21T03:13:35;22.26;86.99
68274;SHT30;55104;47.356;19.448;2023-08-21T03:16:37;22.33;86.74
68274;SHT30;55104;47.356;19.448;2023-08-21T03:19:40;22.33;86.77
68274;SHT30;55104;47.356;19.448;2023-08-21T03:22:42;22.29;86.68
68274;SHT30;55104;47.356;19.448;2023-08-21T03:25:44;22.33;86.64
68274;SHT30;55104;47.356;19.448;2023-08-21T03:28:46;22.39;86.53
68274;SHT30;55104;47.356;19.448;2023-08-21T03:31:53;22.41;86.23
68274;SHT30;55104;47.356;19.448;2023-08-21T03:34:56;22.47;85.93
68274;SHT30;55104;47.356;19.448;2023-08-21T03:37:59;22.50;85.87
68274;SHT30;55104;47.356;19.448;2023-08-21T03:41:05;22.50;85.79
68274;SHT30;55104;47.356;19.448;2023-08-21T03:44:08;22.51;85.71
68274;SHT30;55104;47.356;19.448;2023-08-21T03:47:10;22.58;85.31
68274;SHT30;55104;47.356;19.448;2023-08-21T03:50:21;22.54;85.47
68274;SHT30;55104;47.356;19.448;2023-08-21T03:53:24;22.58;85.24
68274;SHT30;55104;47.356;19.448;2023-08-21T03:56:26;22.50;85.56
68274;SHT30;55104;47.356;19.448;2023-08-21T03:59:29;22.53;85.47
68274;SHT30;55104;47.356;19.448;2023-08-21T04:02:31;22.53;85.51
68274;SHT30;55104;47.356;19.448;2023-08-21T04:05:33;22.53;85.59
68274;SHT30;55104;47.356;19.448;2023-08-21T04:08:35;22.51;85.50
68274;SHT30;55104;47.356;19.448;2023-08-21T04:11:37;22.57;85.10
68274;SHT30;55104;47.356;19.448;2023-08-21T04:14:40;22.61;85.17
68274;SHT30;55104;47.356;19.448;2023-08-21T04:17:42;22.64;85.10
68274;SHT30;55104;47.356;19.448;2023-08-21T04:20:44;22.61;85.22
68274;SHT30;55104;47.356;19.448;2023-08-21T04:23:46;22.68;84.99
68274;SHT30;55104;47.356;19.448;2023-08-21T04:26:48;22.69;85.01
68274;SHT30;55104;47.356;19.448;2023-08-21T04:29:50;22.81;84.51
68274;SHT30;55104;47.356;19.448;2023-08-21T04:32:52;22.85;84.49
68274;SHT30;55104;47.356;19.448;2023-08-21T04:35:55;22.87;84.07
68274;SHT30;55104;47.356;19.448;2023-08-21T04:38:57;22.90;84.37
68274;SHT30;55104;47.356;19.448;2023-08-21T04:42:00;22.96;84.00
68274;SHT30;55104;47.356;19.448;2023-08-21T04:45:02;23.06;83.98
68274;SHT30;55104;47.356;19.448;2023-08-21T04:48:07;23.18;83.54
68274;SHT30;55104;47.356;19.448;2023-08-21T04:51:09;23.22;83.43
68274;SHT30;55104;47.356;19.448;2023-08-21T04:54:12;23.33;83.21
68274;SHT30;55104;47.356;19.448;2023-08-21T04:57:16;23.40;83.03
68274;SHT30;55104;47.356;19.448;2023-08-21T05:00:19;23.51;82.81
68274;SHT30;55104;47.356;19.448;2023-08-21T05:03:21;23.53;82.90
68274;SHT30;55104;47.356;19.448;2023-08-21T05:06:24;23.61;82.51
68274;SHT30;55104;47.356;19.448;2023-08-21T05:09:26;23.75;82.15
68274;SHT30;55104;47.356;19.448;2023-08-21T05:12:28;23.81;82.02
68274;SHT30;55104;47.356;19.448;2023-08-21T05:15:30;24.00;81.55
68274;SHT30;55104;47.356;19.448;2023-08-21T05:18:33;24.04;81.30
68274;SHT30;55104;47.356;19.448;2023-08-21T05:21:35;24.16;80.69
68274;SHT30;55104;47.356;19.448;2023-08-21T05:24:37;24.32;80.09
68274;SHT30;55104;47.356;19.448;2023-08-21T05:27:40;24.36;80.37
68274;SHT30;55104;47.356;19.448;2023-08-21T05:30:42;24.52;79.60
68274;SHT30;55104;47.356;19.448;2023-08-21T05:33:45;24.61;79.09
68274;SHT30;55104;47.356;19.448;2023-08-21T05:36:48;24.67;78.79
68274;SHT30;55104;47.356;19.448;2023-08-21T05:39:51;24.80;78.32
68274;SHT30;55104;47.356;19.448;2023-08-21T05:42:53;24.99;77.95
68274;SHT30;55104;47.356;19.448;2023-08-21T05:45:55;25.10;78.12
68274;SHT30;55104;47.356;19.448;2023-08-21T05:48:57;25.21;78.20
68274;SHT30;55104;47.356;19.448;2023-08-21T05:51:59;25.31;78.06
68274;SHT30;55104;47.356;19.448;2023-08-21T05:55:01;25.42;77.92
68274;SHT30;55104;47.356;19.448;2023-08-21T05:58:03;25.56;77.43
68274;SHT30;55104;47.356;19.448;2023-08-21T06:01:06;25.71;76.68
68274;SHT30;55104;47.356;19.448;2023-08-21T06:04:09;25.80;76.77
68274;SHT30;55104;47.356;19.448;2023-08-21T06:07:15;25.90;76.85
68274;SHT30;55104;47.356;19.448;2023-08-21T06:10:17;26.02;75.21
68274;SHT30;55104;47.356;19.448;2023-08-21T06:13:20;26.14;75.53
68274;SHT30;55104;47.356;19.448;2023-08-21T06:16:24;26.24;74.88
68274;SHT30;55104;47.356;19.448;2023-08-21T06:19:27;26.42;75.17
68274;SHT30;55104;47.356;19.448;2023-08-21T06:22:29;26.51;73.90
68274;SHT30;55104;47.356;19.448;2023-08-21T06:25:32;26.57;73.49
68274;SHT30;55104;47.356;19.448;2023-08-21T06:28:35;26.73;73.86
68274;SHT30;55104;47.356;19.448;2023-08-21T06:31:37;26.87;72.87
68274;SHT30;55104;47.356;19.448;2023-08-21T06:34:39;26.97;72.48
68274;SHT30;55104;47.356;19.448;2023-08-21T06:37:41;27.17;72.33
68274;SHT30;55104;47.356;19.448;2023-08-21T06:40:45;27.35;71.13
68274;SHT30;55104;47.356;19.448;2023-08-21T06:43:47;27.37;71.01
68274;SHT30;55104;47.356;19.448;2023-08-21T06:46:52;27.48;70.60
68274;SHT30;55104;47.356;19.448;2023-08-21T06:49:54;27.62;69.44
68274;SHT30;55104;47.356;19.448;2023-08-21T06:52:56;27.74;68.93
68274;SHT30;55104;47.356;19.448;2023-08-21T06:55:58;27.89;69.27
68274;SHT30;55104;47.356;19.448;2023-08-21T06:59:00;28.08;69.11
68274;SHT30;55104;47.356;19.448;2023-08-21T07:02:03;28.21;68.19
68274;SHT30;55104;47.356;19.448;2023-08-21T07:05:06;28.29;68.51
68274;SHT30;55104;47.356;19.448;2023-08-21T07:08:11;28.40;68.12
68274;SHT30;55104;47.356;19.448;2023-08-21T07:11:13;28.63;68.40
68274;SHT30;55104;47.356;19.448;2023-08-21T07:14:19;28.70;66.40
68274;SHT30;55104;47.356;19.448;2023-08-21T07:17:21;28.75;65.72
68274;SHT30;55104;47.356;19.448;2023-08-21T07:20:23;28.92;65.53
68274;SHT30;55104;47.356;19.448;2023-08-21T07:23:25;29.00;66.93
68274;SHT30;55104;47.356;19.448;2023-08-21T07:26:27;29.17;66.39
68274;SHT30;55104;47.356;19.448;2023-08-21T07:29:30;29.25;65.90
68274;SHT30;55104;47.356;19.448;2023-08-21T07:32:32;29.16;64.58
68274;SHT30;55104;47.356;19.448;2023-08-21T07:35:34;29.31;63.56
68274;SHT30;55104;47.356;19.448;2023-08-21T07:38:37;29.39;63.22
68274;SHT30;55104;47.356;19.448;2023-08-21T07:41:39;29.62;63.22
68274;SHT30;55104;47.356;19.448;2023-08-21T07:44:42;29.71;63.97
68274;SHT30;55104;47.356;19.448;2023-08-21T07:47:44;29.88;63.43
68274;SHT30;55104;47.356;19.448;2023-08-21T07:50:53;29.96;62.35
68274;SHT30;55104;47.356;19.448;2023-08-21T07:53:55;30.17;61.13
68274;SHT30;55104;47.356;19.448;2023-08-21T07:57:01;30.24;62.42
68274;SHT30;55104;47.356;19.448;2023-08-21T08:00:06;30.27;60.24
68274;SHT30;55104;47.356;19.448;2023-08-21T08:03:13;30.35;61.80
68274;SHT30;55104;47.356;19.448;2023-08-21T08:06:16;30.49;61.84
68274;SHT30;55104;47.356;19.448;2023-08-21T08:09:18;30.44;60.89
68274;SHT30;55104;47.356;19.448;2023-08-21T08:12:21;30.60;62.14
68274;SHT30;55104;47.356;19.448;2023-08-21T08:15:23;30.72;61.50
68274;SHT30;55104;47.356;19.448;2023-08-21T08:18:25;30.78;60.71
68274;SHT30;55104;47.356;19.448;2023-08-21T08:21:27;30.88;61.15
68274;SHT30;55104;47.356;19.448;2023-08-21T08:24:29;30.92;60.00
68274;SHT30;55104;47.356;19.448;2023-08-21T08:27:32;31.03;61.47
68274;SHT30;55104;47.356;19.448;2023-08-21T08:30:34;31.06;61.26
68274;SHT30;55104;47.356;19.448;2023-08-21T08:33:36;30.96;60.24
68274;SHT30;55104;47.356;19.448;2023-08-21T08:36:38;31.09;58.56
68274;SHT30;55104;47.356;19.448;2023-08-21T08:39:43;31.22;59.94
68274;SHT30;55104;47.356;19.448;2023-08-21T08:42:45;31.36;58.43
68274;SHT30;55104;47.356;19.448;2023-08-21T08:45:49;31.45;57.67
68274;SHT30;55104;47.356;19.448;2023-08-21T08:48:52;31.40;57.28
68274;SHT30;55104;47.356;19.448;2023-08-21T08:51:55;31.55;56.77
68274;SHT30;55104;47.356;19.448;2023-08-21T08:54:57;31.57;56.98
68274;SHT30;55104;47.356;19.448;2023-08-21T08:57:59;31.50;56.57
68274;SHT30;55104;47.356;19.448;2023-08-21T09:01:01;31.64;55.56
68274;SHT30;55104;47.356;19.448;2023-08-21T09:04:04;31.57;55.53
68274;SHT30;55104;47.356;19.448;2023-08-21T09:07:10;31.78;54.60
68274;SHT30;55104;47.356;19.448;2023-08-21T09:10:14;32.01;56.16
68274;SHT30;55104;47.356;19.448;2023-08-21T09:13:19;31.95;54.58
68274;SHT30;55104;47.356;19.448;2023-08-21T09:16:22;32.12;56.66
68274;SHT30;55104;47.356;19.448;2023-08-21T09:19:25;32.30;54.87
68274;SHT30;55104;47.356;19.448;2023-08-21T09:22:27;32.10;55.48
68274;SHT30;55104;47.356;19.448;2023-08-21T09:25:34;32.15;52.67
68274;SHT30;55104;47.356;19.448;2023-08-21T09:28:37;32.01;54.40
68274;SHT30;55104;47.356;19.448;2023-08-21T09:31:39;32.10;51.86
68274;SHT30;55104;47.356;19.448;2023-08-21T09:34:42;32.23;53.74
68274;SHT30;55104;47.356;19.448;2023-08-21T09:37:46;32.46;52.55
68274;SHT30;55104;47.356;19.448;2023-08-21T09:40:53;32.75;50.08
68274;SHT30;55104;47.356;19.448;2023-08-21T09:44:00;33.09;52.66
68274;SHT30;55104;47.356;19.448;2023-08-21T09:47:03;33.09;51.01
68274;SHT30;55104;47.356;19.448;2023-08-21T09:50:06;33.01;51.26
68274;SHT30;55104;47.356;19.448;2023-08-21T09:53:09;33.18;50.49
68274;SHT30;55104;47.356;19.448;2023-08-21T09:56:11;33.02;50.12
68274;SHT30;55104;47.356;19.448;2023-08-21T09:59:14;33.01;51.43
68274;SHT30;55104;47.356;19.448;2023-08-21T10:02:18;33.21;46.33
68274;SHT30;55104;47.356;19.448;2023-08-21T10:05:21;33.09;48.56
68274;SHT30;55104;47.356;19.448;2023-08-21T10:08:25;33.15;48.97
68274;SHT30;55104;47.356;19.448;2023-08-21T10:11:30;33.39;51.65
68274;SHT30;55104;47.356;19.448;2023-08-21T10:14:33;33.36;47.62
68274;SHT30;55104;47.356;19.448;2023-08-21T10:17:36;33.41;49.97
68274;SHT30;55104;47.356;19.448;2023-08-21T10:20:39;33.12;48.87
68274;SHT30;55104;47.356;19.448;2023-08-21T10:23:41;33.42;47.98
68274;SHT30;55104;47.356;19.448;2023-08-21T10:26:46;33.76;48.08
68274;SHT30;55104;47.356;19.448;2023-08-21T10:29:57;33.80;46.41
68274;SHT30;55104;47.356;19.448;2023-08-21T10:33:00;34.04;48.86
68274;SHT30;55104;47.356;19.448;2023-08-21T10:36:02;33.80;48.80
68274;SHT30;55104;47.356;19.448;2023-08-21T10:39:12;33.88;46.19
68274;SHT30;55104;47.356;19.448;2023-08-21T10:42:15;34.17;49.32
68274;SHT30;55104;47.356;19.448;2023-08-21T10:45:17;34.21;49.37
68274;SHT30;55104;47.356;19.448;2023-08-21T10:48:19;34.09;47.44
68274;SHT30;55104;47.356;19.448;2023-08-21T10:51:21;33.97;47.46
68274;SHT30;55104;47.356;19.448;2023-08-21T10:54:23;34.24;46.80
68274;SHT30;55104;47.356;19.448;2023-08-21T10:57:27;34.04;48.08
68274;SHT30;55104;47.356;19.448;2023-08-21T11:00:30;33.96;48.09
68274;SHT30;55104;47.356;19.448;2023-08-21T11:03:32;33.56;47.16
68274;SHT30;55104;47.356;19.448;2023-08-21T11:06:34;33.56;50.12
68274;SHT30;55104;47.356;19.448;2023-08-21T11:09:38;33.27;50.58
68274;SHT30;55104;47.356;19.448;2023-08-21T11:12:51;33.36;51.03
68274;SHT30;55104;47.356;19.448;2023-08-21T11:15:58;33.59;49.66
68274;SHT30;55104;47.356;19.448;2023-08-21T11:19:04;33.69;47.34
68274;SHT30;55104;47.356;19.448;2023-08-21T11:22:07;33.86;48.94
68274;SHT30;55104;47.356;19.448;2023-08-21T11:25:10;34.17;49.57
68274;SHT30;55104;47.356;19.448;2023-08-21T11:28:16;34.24;49.07
68274;SHT30;55104;47.356;19.448;2023-08-21T11:31:19;34.24;47.39
68274;SHT30;55104;47.356;19.448;2023-08-21T11:34:22;34.21;45.68
68274;SHT30;55104;47.356;19.448;2023-08-21T11:37:26;34.39;46.72
68274;SHT30;55104;47.356;19.448;2023-08-21T11:40:28;34.02;46.40
68274;SHT30;55104;47.356;19.448;2023-08-21T11:43:38;33.97;45.16
68274;SHT30;55104;47.356;19.448;2023-08-21T11:46:40;33.94;46.19
68274;SHT30;55104;47.356;19.448;2023-08-21T11:49:44;34.07;46.73
68274;SHT30;55104;47.356;19.448;2023-08-21T11:52:52;33.97;46.22
68274;SHT30;55104;47.356;19.448;2023-08-21T11:55:54;34.21;48.40
68274;SHT30;55104;47.356;19.448;2023-08-21T11:58:58;34.28;48.20
68274;SHT30;55104;47.356;19.448;2023-08-21T12:02:01;34.52;47.21
68274;SHT30;55104;47.356;19.448;2023-08-21T12:05:14;34.51;46.35
68274;SHT30;55104;47.356;19.448;2023-08-21T12:08:16;34.69;46.99
68274;SHT30;55104;47.356;19.448;2023-08-21T12:11:18;34.60;46.70
68274;SHT30;55104;47.356;19.448;2023-08-21T12:14:20;34.67;46.62
68274;SHT30;55104;47.356;19.448;2023-08-21T12:17:22;34.52;44.37
68274;SHT30;55104;47.356;19.448;2023-08-21T12:20:24;34.51;45.58
68274;SHT30;55104;47.356;19.448;2023-08-21T12:23:27;34.67;44.71
68274;SHT30;55104;47.356;19.448;2023-08-21T12:26:30;34.71;45.20
68274;SHT30;55104;47.356;19.448;2023-08-21T12:29:45;34.91;45.81
68274;SHT30;55104;47.356;19.448;2023-08-21T12:32:49;34.98;46.09
68274;SHT30;55104;47.356;19.448;2023-08-21T12:35:51;34.90;45.93
68274;SHT30;55104;47.356;19.448;2023-08-21T12:38:53;34.79;45.79
68274;SHT30;55104;47.356;19.448;2023-08-21T12:41:55;34.83;45.62
68274;SHT30;55104;47.356;19.448;2023-08-21T12:44:58;34.98;46.37
68274;SHT30;55104;47.356;19.448;2023-08-21T12:48:00;34.64;47.07
68274;SHT30;55104;47.356;19.448;2023-08-21T12:51:02;34.67;47.62
68274;SHT30;55104;47.356;19.448;2023-08-21T12:54:04;34.57;47.59
68274;SHT30;55104;47.356;19.448;2023-08-21T12:57:08;34.52;47.36
68274;SHT30;55104;47.356;19.448;2023-08-21T13:00:11;34.62;47.42
68274;SHT30;55104;47.356;19.448;2023-08-21T13:03:13;34.46;47.09
68274;SHT30;55104;47.356;19.448;2023-08-21T13:06:15;34.38;46.26
68274;SHT30;55104;47.356;19.448;2023-08-21T13:09:18;34.32;46.85
68274;SHT30;55104;47.356;19.448;2023-08-21T13:12:20;34.42;46.13
68274;SHT30;55104;47.356;19.448;2023-08-21T13:15:22;34.53;45.66
68274;SHT30;55104;47.356;19.448;2023-08-21T13:18:24;34.56;46.04
68274;SHT30;55104;47.356;19.448;2023-08-21T13:21:26;34.35;45.82
68274;SHT30;55104;47.356;19.448;2023-08-21T13:24:28;34.51;46.68
68274;SHT30;55104;47.356;19.448;2023-08-21T13:27:32;34.43;46.75
68274;SHT30;55104;47.356;19.448;2023-08-21T13:30:34;34.55;46.84
68274;SHT30;55104;47.356;19.448;2023-08-21T13:33:48;34.83;47.18
68274;SHT30;55104;47.356;19.448;2023-08-21T13:36:52;34.39;44.44
68274;SHT30;55104;47.356;19.448;2023-08-21T13:39:55;34.34;46.14
68274;SHT30;55104;47.356;19.448;2023-08-21T13:43:01;34.49;45.10
68274;SHT30;55104;47.356;19.448;2023-08-21T13:46:04;34.42;44.24
68274;SHT30;55104;47.356;19.448;2023-08-21T13:49:06;34.51;45.93
68274;SHT30;55104;47.356;19.448;2023-08-21T13:52:08;34.63;45.35
68274;SHT30;55104;47.356;19.448;2023-08-21T13:55:10;34.80;43.48
68274;SHT30;55104;47.356;19.448;2023-08-21T13:58:13;34.56;42.85
68274;SHT30;55104;47.356;19.448;2023-08-21T14:01:15;34.62;43.52
68274;SHT30;55104;47.356;19.448;2023-08-21T14:04:20;34.76;45.08
68274;SHT30;55104;47.356;19.448;2023-08-21T14:07:22;34.90;43.62
68274;SHT30;55104;47.356;19.448;2023-08-21T14:10:24;34.76;44.59
68274;SHT30;55104;47.356;19.448;2023-08-21T14:13:27;34.79;45.15
68274;SHT30;55104;47.356;19.448;2023-08-21T14:16:29;34.48;44.32
68274;SHT30;55104;47.356;19.448;2023-08-21T14:19:31;34.11;45.11
68274;SHT30;55104;47.356;19.448;2023-08-21T14:22:33;34.04;46.93
68274;SHT30;55104;47.356;19.448;2023-08-21T14:25:36;34.24;44.97
68274;SHT30;55104;47.356;19.448;2023-08-21T14:28:39;34.25;44.95
68274;SHT30;55104;47.356;19.448;2023-08-21T14:31:41;34.25;46.00
68274;SHT30;55104;47.356;19.448;2023-08-21T14:34:43;34.35;45.54
68274;SHT30;55104;47.356;19.448;2023-08-21T14:37:45;34.48;44.84
68274;SHT30;55104;47.356;19.448;2023-08-21T14:40:47;34.48;45.29
68274;SHT30;55104;47.356;19.448;2023-08-21T14:43:51;34.42;44.94
68274;SHT30;55104;47.356;19.448;2023-08-21T14:46:54;34.17;44.13
68274;SHT30;55104;47.356;19.448;2023-08-21T14:50:00;34.19;44.96
68274;SHT30;55104;47.356;19.448;2023-08-21T14:53:02;34.11;44.09
68274;SHT30;55104;47.356;19.448;2023-08-21T14:56:04;34.15;45.33
68274;SHT30;55104;47.356;19.448;2023-08-21T14:59:07;34.18;44.94
68274;SHT30;55104;47.356;19.448;2023-08-21T15:02:12;34.32;46.00
68274;SHT30;55104;47.356;19.448;2023-08-21T15:05:14;34.02;44.10
68274;SHT30;55104;47.356;19.448;2023-08-21T15:08:18;34.00;44.61
68274;SHT30;55104;47.356;19.448;2023-08-21T15:11:20;33.94;44.57
68274;SHT30;55104;47.356;19.448;2023-08-21T15:14:22;33.87;44.13
68274;SHT30;55104;47.356;19.448;2023-08-21T15:17:24;33.98;43.71
68274;SHT30;55104;47.356;19.448;2023-08-21T15:20:27;34.01;43.67
68274;SHT30;55104;47.356;19.448;2023-08-21T15:23:29;34.00;45.12
68274;SHT30;55104;47.356;19.448;2023-08-21T15:26:31;33.97;42.56
68274;SHT30;55104;47.356;19.448;2023-08-21T15:29:33;33.94;42.58
68274;SHT30;55104;47.356;19.448;2023-08-21T15:32:35;33.93;42.84
68274;SHT30;55104;47.356;19.448;2023-08-21T15:35:38;33.86;42.57
68274;SHT30;55104;47.356;19.448;2023-08-21T15:38:40;33.76;45.01
68274;SHT30;55104;47.356;19.448;2023-08-21T15:41:42;33.46;45.25
68274;SHT30;55104;47.356;19.448;2023-08-21T15:44:44;33.56;44.30
68274;SHT30;55104;47.356;19.448;2023-08-21T15:47:46;33.54;44.40
68274;SHT30;55104;47.356;19.448;2023-08-21T15:50:52;33.41;45.15
68274;SHT30;55104;47.356;19.448;2023-08-21T15:53:54;33.42;44.28
68274;SHT30;55104;47.356;19.448;2023-08-21T15:56:56;33.36;45.71
68274;SHT30;55104;47.356;19.448;2023-08-21T15:59:58;33.27;45.99
68274;SHT30;55104;47.356;19.448;2023-08-21T16:03:01;33.18;46.33
68274;SHT30;55104;47.356;19.448;2023-08-21T16:06:03;33.22;45.33
68274;SHT30;55104;47.356;19.448;2023-08-21T16:09:05;33.18;46.43
68274;SHT30;55104;47.356;19.448;2023-08-21T16:12:07;33.11;45.70
68274;SHT30;55104;47.356;19.448;2023-08-21T16:15:09;33.02;45.58
68274;SHT30;55104;47.356;19.448;2023-08-21T16:18:12;32.87;46.76
68274;SHT30;55104;47.356;19.448;2023-08-21T16:21:14;32.74;48.36
68274;SHT30;55104;47.356;19.448;2023-08-21T16:24:16;32.63;48.18
68274;SHT30;55104;47.356;19.448;2023-08-21T16:27:18;32.49;48.54
68274;SHT30;55104;47.356;19.448;2023-08-21T16:30:20;32.40;48.09
68274;SHT30;55104;47.356;19.448;2023-08-21T16:33:22;32.26;48.73
68274;SHT30;55104;47.356;19.448;2023-08-21T16:36:24;32.04;51.87
68274;SHT30;55104;47.356;19.448;2023-08-21T16:39:26;31.85;51.55
68274;SHT30;55104;47.356;19.448;2023-08-21T16:42:29;31.77;52.02
68274;SHT30;55104;47.356;19.448;2023-08-21T16:45:31;31.70;52.56
68274;SHT30;55104;47.356;19.448;2023-08-21T16:48:34;31.51;52.90
68274;SHT30;55104;47.356;19.448;2023-08-21T16:51:36;31.37;54.34
68274;SHT30;55104;47.356;19.448;2023-08-21T16:54:38;31.19;56.34
68274;SHT30;55104;47.356;19.448;2023-08-21T16:57:40;31.02;56.50
68274;SHT30;55104;47.356;19.448;2023-08-21T17:00:42;30.86;57.01
68274;SHT30;55104;47.356;19.448;2023-08-21T17:03:46;30.71;58.17
68274;SHT30;55104;47.356;19.448;2023-08-21T17:06:48;30.60;58.56
68274;SHT30;55104;47.356;19.448;2023-08-21T17:09:50;30.47;58.64
68274;SHT30;55104;47.356;19.448;2023-08-21T17:12:52;30.35;59.89
68274;SHT30;55104;47.356;19.448;2023-08-21T17:15:54;30.18;60.56
68274;SHT30;55104;47.356;19.448;2023-08-21T17:18:57;30.03;61.85
68274;SHT30;55104;47.356;19.448;2023-08-21T17:21:59;29.89;62.08
68274;SHT30;55104;47.356;19.448;2023-08-21T17:25:01;29.73;62.32
68274;SHT30;55104;47.356;19.448;2023-08-21T17:28:16;29.58;63.05
68274;SHT30;55104;47.356;19.448;2023-08-21T17:31:18;29.43;64.17
68274;SHT30;55104;47.356;19.448;2023-08-21T17:34:20;29.20;64.72
68274;SHT30;55104;47.356;19.448;2023-08-21T17:37:22;29.10;66.02
68274;SHT30;55104;47.356;19.448;2023-08-21T17:40:24;28.99;66.32
68274;SHT30;55104;47.356;19.448;2023-08-21T17:43:26;28.79;66.62
68274;SHT30;55104;47.356;19.448;2023-08-21T17:46:28;28.63;67.68
68274;SHT30;55104;47.356;19.448;2023-08-21T17:49:31;28.52;67.79
68274;SHT30;55104;47.356;19.448;2023-08-21T17:52:33;28.37;68.42
68274;SHT30;55104;47.356;19.448;2023-08-21T17:55:35;28.25;69.53
68274;SHT30;55104;47.356;19.448;2023-08-21T17:58:38;28.14;69.41
68274;SHT30;55104;47.356;19.448;2023-08-21T18:01:40;28.04;70.17
68274;SHT30;55104;47.356;19.448;2023-08-21T18:04:42;27.89;71.43
68274;SHT30;55104;47.356;19.448;2023-08-21T18:07:44;27.78;71.84
68274;SHT30;55104;47.356;19.448;2023-08-21T18:10:47;27.56;72.27
68274;SHT30;55104;47.356;19.448;2023-08-21T18:13:53;27.48;73.20
68274;SHT30;55104;47.356;19.448;2023-08-21T18:16:59;27.37;72.16
68274;SHT30;55104;47.356;19.448;2023-08-21T18:20:05;27.30;72.61
68274;SHT30;55104;47.356;19.448;2023-08-21T18:23:08;27.20;72.73
68274;SHT30;55104;47.356;19.448;2023-08-21T18:26:10;27.10;72.92
68274;SHT30;55104;47.356;19.448;2023-08-21T18:29:12;27.00;72.16
68274;SHT30;55104;47.356;19.448;2023-08-21T18:32:15;26.84;72.28
68274;SHT30;55104;47.356;19.448;2023-08-21T18:35:17;26.83;72.42
68274;SHT30;55104;47.356;19.448;2023-08-21T18:38:19;26.72;72.84
68274;SHT30;55104;47.356;19.448;2023-08-21T18:41:26;26.63;73.01
68274;SHT30;55104;47.356;19.448;2023-08-21T18:44:28;26.52;73.70
68274;SHT30;55104;47.356;19.448;2023-08-21T18:47:31;26.42;73.90
68274;SHT30;55104;47.356;19.448;2023-08-21T18:50:38;26.29;74.22
68274;SHT30;55104;47.356;19.448;2023-08-21T18:53:44;26.20;75.18
68274;SHT30;55104;47.356;19.448;2023-08-21T18:56:46;26.09;75.61